Time;durP1;ratioP1;P1;durP2;ratioP2;P2;SDS_P1;SDS_P2;PMS_P1;PMS_P2;Temp;Humidity;BMP_temperature;BMP_pressure;BME280_temperature;BME280_humidity;BME280_pressure;Samples;Min_cycle;Max_cycle;Signal;HPM_P1;HPM_P2
2020/08/25 00:00:30;;;;;;;1.99;1.30;;;;;;;22.80;65.69;100432.50;;;;-44
2020/08/25 00:03:30;;;;;;;1.30;1.20;;;;;;;22.80;65.75;100430.54;;;;-44
2020/08/25 00:06:30;;;;;;;1.94;1.34;;;;;;;22.79;65.75;100427.20;;;;-49
2020/08/25 00:09:30;;;;;;;1.40;1.30;;;;;;;22.78;65.70;100420.26;;;;-57
2020/08/25 00:12:30;;;;;;;1.32;1.22;;;;;;;22.78;65.71;100420.09;;;;-56
2020/08/25 00:15:30;;;;;;;1.47;1.28;;;;;;;22.77;65.69;100419.55;;;;-49
2020/08/25 00:18:30;;;;;;;1.51;1.30;;;;;;;22.77;65.72;100416.02;;;;-48
2020/08/25 00:21:30;;;;;;;1.68;1.30;;;;;;;22.76;65.75;100415.03;;;;-44
2020/08/25 00:24:30;;;;;;;2.02;1.21;;;;;;;22.76;65.81;100411.45;;;;-49
2020/08/25 00:27:30;;;;;;;1.54;1.30;;;;;;;22.75;65.71;100408.03;;;;-48
2020/08/25 00:30:30;;;;;;;1.56;1.35;;;;;;;22.75;65.79;100407.80;;;;-57
2020/08/25 00:33:30;;;;;;;1.29;1.20;;;;;;;22.74;65.80;100409.59;;;;-48
2020/08/25 00:36:30;;;;;;;1.92;1.20;;;;;;;22.73;65.83;100405.67;;;;-49
2020/08/25 00:39:30;;;;;;;1.34;1.24;;;;;;;22.74;65.81;100406.48;;;;-48
2020/08/25 00:42:30;;;;;;;1.44;1.27;;;;;;;22.73;65.80;100405.03;;;;-48
2020/08/25 00:45:30;;;;;;;1.57;1.31;;;;;;;22.73;65.81;100407.47;;;;-49
2020/08/25 00:48:30;;;;;;;1.37;1.24;;;;;;;22.73;65.79;100412.22;;;;-57
2020/08/25 00:51:30;;;;;;;1.61;1.21;;;;;;;22.72;65.82;100407.50;;;;-48
2020/08/25 00:54:30;;;;;;;1.92;1.33;;;;;;;22.72;65.81;100404.53;;;;-57
2020/08/25 00:57:30;;;;;;;1.59;1.30;;;;;;;22.70;65.82;100401.55;;;;-49
2020/08/25 01:00:30;;;;;;;1.65;1.25;;;;;;;22.71;65.83;100398.67;;;;-48
2020/08/25 01:03:30;;;;;;;1.41;1.31;;;;;;;22.71;65.83;100397.37;;;;-48
2020/08/25 01:06:30;;;;;;;1.25;1.15;;;;;;;22.70;65.79;100393.84;;;;-49
2020/08/25 01:09:30;;;;;;;2.72;1.39;;;;;;;22.70;65.86;100399.18;;;;-49
2020/08/25 01:12:30;;;;;;;1.39;1.29;;;;;;;22.70;65.91;100401.28;;;;-57
2020/08/25 01:18:30;;;;;;;1.49;1.31;;;;;;;22.69;65.85;100397.22;;;;-44
2020/08/25 01:21:30;;;;;;;1.51;1.30;;;;;;;22.69;65.90;100397.29;;;;-44
2020/08/25 01:24:30;;;;;;;1.40;1.30;;;;;;;22.68;65.87;100393.22;;;;-48
2020/08/25 01:27:30;;;;;;;1.35;1.20;;;;;;;22.68;65.85;100388.41;;;;-49
2020/08/25 01:30:30;;;;;;;2.15;1.29;;;;;;;22.67;65.86;100388.31;;;;-49
2020/08/25 01:33:30;;;;;;;1.30;1.20;;;;;;;22.67;65.88;100387.50;;;;-44
2020/08/25 01:36:30;;;;;;;1.30;1.20;;;;;;;22.68;65.91;100393.45;;;;-44
2020/08/25 01:39:30;;;;;;;1.59;1.30;;;;;;;22.68;65.88;100394.93;;;;-57
2020/08/25 01:42:30;;;;;;;1.40;1.30;;;;;;;22.67;65.87;100398.12;;;;-44
2020/08/25 01:45:30;;;;;;;1.53;1.30;;;;;;;22.66;65.83;100398.63;;;;-48
2020/08/25 01:48:30;;;;;;;1.33;1.23;;;;;;;22.66;65.88;100392.52;;;;-57
2020/08/25 01:51:30;;;;;;;1.27;1.17;;;;;;;22.66;65.89;100389.23;;;;-44
2020/08/25 01:54:30;;;;;;;1.38;1.28;;;;;;;22.65;65.94;100387.68;;;;-49
2020/08/25 01:57:30;;;;;;;1.29;1.19;;;;;;;22.65;65.95;100388.17;;;;-49
2020/08/25 02:00:30;;;;;;;1.40;1.30;;;;;;;22.65;65.96;100384.01;;;;-44
2020/08/25 02:03:30;;;;;;;1.31;1.21;;;;;;;22.65;65.92;100382.21;;;;-57
2020/08/25 02:06:30;;;;;;;1.36;1.26;;;;;;;22.65;65.97;100384.52;;;;-48
2020/08/25 02:09:30;;;;;;;1.34;1.24;;;;;;;22.64;65.84;100384.44;;;;-49
2020/08/25 02:12:30;;;;;;;1.30;1.20;;;;;;;22.64;65.96;100384.52;;;;-49
2020/08/25 02:15:30;;;;;;;1.35;1.25;;;;;;;22.64;65.99;100380.17;;;;-48
2020/08/25 02:18:30;;;;;;;1.30;1.20;;;;;;;22.64;65.97;100376.91;;;;-49
2020/08/25 02:21:30;;;;;;;1.31;1.20;;;;;;;22.63;65.93;100369.89;;;;-44
2020/08/25 02:24:30;;;;;;;1.40;1.30;;;;;;;22.63;65.96;100368.76;;;;-45
2020/08/25 02:27:30;;;;;;;1.44;1.34;;;;;;;22.63;65.85;100370.80;;;;-49
2020/08/25 02:30:30;;;;;;;1.38;1.23;;;;;;;22.63;65.85;100371.05;;;;-57
2020/08/25 02:33:30;;;;;;;1.41;1.30;;;;;;;22.62;65.90;100366.57;;;;-49
2020/08/25 02:36:30;;;;;;;1.60;1.30;;;;;;;22.62;65.99;100360.69;;;;-49
2020/08/25 02:39:30;;;;;;;1.38;1.28;;;;;;;22.62;65.96;100359.88;;;;-57
2020/08/25 02:42:30;;;;;;;1.43;1.31;;;;;;;22.62;65.91;100357.89;;;;-44
2020/08/25 02:45:30;;;;;;;1.29;1.20;;;;;;;22.61;65.92;100358.88;;;;-44
2020/08/25 02:48:30;;;;;;;1.39;1.29;;;;;;;22.60;65.88;100361.27;;;;-48
2020/08/25 02:51:30;;;;;;;1.32;1.22;;;;;;;22.60;65.99;100353.51;;;;-49
2020/08/25 02:54:30;;;;;;;1.19;1.11;;;;;;;22.59;65.86;100353.50;;;;-57
2020/08/25 02:57:30;;;;;;;1.36;1.25;;;;;;;22.59;65.93;100350.23;;;;-57
2020/08/25 03:00:31;;;;;;;1.30;1.20;;;;;;;22.59;65.93;100348.13;;;;-58
2020/08/25 03:03:30;;;;;;;1.31;1.20;;;;;;;22.59;65.97;100348.36;;;;-48
2020/08/25 03:06:30;;;;;;;1.20;1.10;;;;;;;22.59;65.99;100345.27;;;;-44
2020/08/25 03:09:30;;;;;;;1.41;1.31;;;;;;;22.58;65.89;100346.59;;;;-48
2020/08/25 03:12:30;;;;;;;1.30;1.20;;;;;;;22.58;65.88;100341.17;;;;-48
2020/08/25 03:15:30;;;;;;;1.40;1.30;;;;;;;22.58;65.94;100337.11;;;;-48
2020/08/25 03:18:30;;;;;;;1.43;1.33;;;;;;;22.57;65.91;100342.98;;;;-48
2020/08/25 03:21:30;;;;;;;1.41;1.31;;;;;;;22.57;65.96;100342.57;;;;-57
2020/08/25 03:24:30;;;;;;;1.33;1.21;;;;;;;22.57;66.03;100339.30;;;;-57
2020/08/25 03:27:30;;;;;;;1.39;1.29;;;;;;;22.56;65.98;100332.30;;;;-57
2020/08/25 03:30:30;;;;;;;1.34;1.24;;;;;;;22.56;66.02;100327.08;;;;-48
2020/08/25 03:33:30;;;;;;;1.25;1.16;;;;;;;22.56;65.99;100328.47;;;;-48
2020/08/25 03:36:30;;;;;;;1.16;1.16;;;;;;;22.56;66.06;100325.70;;;;-48
2020/08/25 03:39:30;;;;;;;1.47;1.21;;;;;;;22.56;66.04;100320.72;;;;-57
2020/08/25 03:42:30;;;;;;;1.39;1.25;;;;;;;22.55;66.07;100314.33;;;;-48
2020/08/25 03:45:30;;;;;;;1.30;1.20;;;;;;;22.55;66.05;100312.13;;;;-48
2020/08/25 03:48:30;;;;;;;1.30;1.20;;;;;;;22.55;66.07;100308.38;;;;-49
2020/08/25 03:51:30;;;;;;;1.30;1.20;;;;;;;22.55;66.10;100308.13;;;;-49
2020/08/25 03:54:30;;;;;;;1.40;1.30;;;;;;;22.55;66.18;100309.92;;;;-49
2020/08/25 03:57:30;;;;;;;1.30;1.20;;;;;;;22.55;66.19;100311.66;;;;-57
2020/08/25 04:00:30;;;;;;;1.14;1.14;;;;;;;22.55;66.14;100309.86;;;;-44
2020/08/25 04:03:30;;;;;;;1.11;1.10;;;;;;;22.55;66.19;100308.88;;;;-49
2020/08/25 04:06:30;;;;;;;1.30;1.20;;;;;;;22.54;66.17;100303.42;;;;-44
2020/08/25 04:09:30;;;;;;;1.40;1.30;;;;;;;22.54;66.19;100307.74;;;;-49
2020/08/25 04:12:30;;;;;;;1.31;1.20;;;;;;;22.55;66.21;100308.05;;;;-44
2020/08/25 04:15:30;;;;;;;1.62;1.25;;;;;;;22.55;66.19;100305.77;;;;-46
2020/08/25 04:18:30;;;;;;;1.31;1.21;;;;;;;22.54;66.14;100307.50;;;;-57
2020/08/25 04:21:30;;;;;;;1.28;1.18;;;;;;;22.54;66.19;100304.31;;;;-57
2020/08/25 04:24:30;;;;;;;1.30;1.20;;;;;;;22.54;66.17;100306.09;;;;-57
2020/08/25 04:27:30;;;;;;;1.77;1.33;;;;;;;22.54;66.23;100305.92;;;;-44
2020/08/25 04:30:30;;;;;;;1.27;1.17;;;;;;;22.53;66.22;100309.05;;;;-44
2020/08/25 04:33:30;;;;;;;1.11;1.10;;;;;;;22.53;66.23;100306.67;;;;-48
2020/08/25 04:36:30;;;;;;;1.29;1.19;;;;;;;22.53;66.23;100305.61;;;;-57
2020/08/25 04:39:30;;;;;;;1.10;1.10;;;;;;;22.53;66.24;100307.65;;;;-57
2020/08/25 04:42:30;;;;;;;1.24;1.20;;;;;;;22.53;66.24;100311.08;;;;-48
2020/08/25 04:45:30;;;;;;;1.37;1.27;;;;;;;22.53;66.24;100310.03;;;;-56
2020/08/25 04:48:30;;;;;;;1.37;1.27;;;;;;;22.52;66.25;100311.76;;;;-57
2020/08/25 04:51:30;;;;;;;1.11;1.10;;;;;;;22.53;66.29;100318.11;;;;-57
2020/08/25 04:54:30;;;;;;;1.33;1.23;;;;;;;22.52;66.27;100323.84;;;;-44
2020/08/25 04:57:30;;;;;;;1.30;1.20;;;;;;;22.52;66.30;100320.02;;;;-48
2020/08/25 05:00:30;;;;;;;2.89;1.78;;;;;;;22.34;57.52;100322.77;;;;-50
2020/08/25 05:03:30;;;;;;;2.69;1.79;;;;;;;22.08;55.99;100324.63;;;;-51
2020/08/25 05:06:30;;;;;;;10.29;2.09;;;;;;;21.87;55.27;100323.72;;;;-50
2020/08/25 05:09:30;;;;;;;4.12;2.23;;;;;;;21.63;55.35;100319.03;;;;-57
2020/08/25 05:12:30;;;;;;;4.68;2.16;;;;;;;21.50;55.04;100314.83;;;;-51
2020/08/25 05:15:30;;;;;;;3.65;2.11;;;;;;;21.37;55.08;100312.33;;;;-51
2020/08/25 05:18:30;;;;;;;3.63;1.89;;;;;;;21.30;55.19;100310.09;;;;-56
2020/08/25 05:21:30;;;;;;;3.70;2.05;;;;;;;21.18;55.49;100310.36;;;;-54
2020/08/25 05:24:30;;;;;;;4.53;2.00;;;;;;;21.12;55.68;100307.05;;;;-49
2020/08/25 05:27:30;;;;;;;4.05;2.26;;;;;;;21.01;55.94;100297.95;;;;-49
2020/08/25 05:30:30;;;;;;;4.22;2.06;;;;;;;20.96;55.98;100299.85;;;;-49
2020/08/25 05:33:30;;;;;;;3.94;2.02;;;;;;;20.93;56.09;100297.56;;;;-49
2020/08/25 05:36:30;;;;;;;3.62;2.09;;;;;;;20.87;56.23;100285.92;;;;-49
2020/08/25 05:40:30;;;;;;;4.53;1.95;;;;;;;20.80;56.47;100285.29;;;;-49
2020/08/25 05:43:30;;;;;;;4.21;1.99;;;;;;;20.83;56.39;100287.06;;;;-50
2020/08/25 05:47:30;;;;;;;3.89;1.87;;;;;;;20.77;56.59;100278.47;;;;-55
2020/08/25 05:50:30;;;;;;;2.90;1.99;;;;;;;20.73;56.50;100281.14;;;;-51
2020/08/25 05:53:30;;;;;;;3.61;2.10;;;;;;;20.74;56.75;100278.14;;;;-49
2020/08/25 05:57:30;;;;;;;5.11;2.14;;;;;;;20.78;56.35;100281.30;;;;-57
2020/08/25 06:00:30;;;;;;;3.44;1.99;;;;;;;20.68;56.63;100274.80;;;;-56
2020/08/25 06:03:30;;;;;;;5.39;2.11;;;;;;;20.70;56.67;100274.15;;;;-56
2020/08/25 06:06:30;;;;;;;4.31;1.97;;;;;;;20.67;56.47;100276.20;;;;-51
2020/08/25 06:09:30;;;;;;;3.94;1.97;;;;;;;20.65;56.29;100275.23;;;;-56
2020/08/25 06:12:30;;;;;;;4.05;1.95;;;;;;;20.66;56.35;100281.89;;;;-56
2020/08/25 06:15:30;;;;;;;4.24;1.97;;;;;;;20.61;56.64;100276.70;;;;-56
2020/08/25 06:18:30;;;;;;;2.61;1.91;;;;;;;20.60;56.27;100274.56;;;;-56
2020/08/25 06:21:30;;;;;;;3.31;2.02;;;;;;;20.55;56.23;100269.84;;;;-56
2020/08/25 06:24:30;;;;;;;3.33;2.01;;;;;;;20.55;56.68;100273.25;;;;-53
2020/08/25 06:27:30;;;;;;;3.17;1.96;;;;;;;20.53;56.72;100276.27;;;;-53
2020/08/25 06:30:30;;;;;;;5.61;2.00;;;;;;;20.50;57.00;100276.42;;;;-51
2020/08/25 06:33:30;;;;;;;2.75;2.01;;;;;;;20.52;56.85;100276.98;;;;-56
2020/08/25 06:36:30;;;;;;;2.75;1.85;;;;;;;20.49;57.30;100273.41;;;;-56
2020/08/25 06:39:30;;;;;;;4.07;2.02;;;;;;;20.52;57.37;100277.97;;;;-56
2020/08/25 06:42:30;;;;;;;3.35;1.89;;;;;;;20.53;57.68;100272.61;;;;-54
2020/08/25 06:45:30;;;;;;;2.76;1.93;;;;;;;20.57;57.51;100273.49;;;;-50
2020/08/25 06:48:30;;;;;;;3.05;2.10;;;;;;;20.59;57.47;100278.23;;;;-49
2020/08/25 06:51:30;;;;;;;5.59;2.07;;;;;;;20.60;57.59;100278.47;;;;-51
2020/08/25 06:54:30;;;;;;;3.60;1.86;;;;;;;20.61;57.39;100281.99;;;;-52
2020/08/25 06:57:30;;;;;;;3.95;2.21;;;;;;;20.59;57.38;100288.27;;;;-51
2020/08/25 07:00:30;;;;;;;5.03;2.31;;;;;;;20.56;57.95;100285.61;;;;-56
2020/08/25 07:03:30;;;;;;;2.69;2.05;;;;;;;20.58;58.24;100283.34;;;;-56
2020/08/25 07:06:30;;;;;;;3.74;2.10;;;;;;;20.58;58.18;100288.57;;;;-56
2020/08/25 07:09:30;;;;;;;4.18;2.23;;;;;;;20.56;57.88;100292.36;;;;-49
2020/08/25 07:12:30;;;;;;;4.22;2.19;;;;;;;20.55;57.85;100286.68;;;;-51
2020/08/25 07:15:30;;;;;;;3.43;2.11;;;;;;;20.54;57.79;100289.12;;;;-57
2020/08/25 07:18:30;;;;;;;3.57;2.13;;;;;;;20.51;58.38;100286.20;;;;-58
2020/08/25 07:21:30;;;;;;;3.25;2.15;;;;;;;20.51;58.54;100285.23;;;;-57
2020/08/25 07:24:30;;;;;;;4.20;2.31;;;;;;;20.53;57.99;100274.80;;;;-56
2020/08/25 07:27:30;;;;;;;5.73;2.42;;;;;;;20.50;58.05;100274.66;;;;-56
2020/08/25 07:30:30;;;;;;;3.66;2.07;;;;;;;20.47;58.70;100273.66;;;;-56
2020/08/25 07:33:30;;;;;;;5.01;2.40;;;;;;;20.50;58.68;100271.53;;;;-57
2020/08/25 07:36:30;;;;;;;3.61;2.25;;;;;;;20.48;58.71;100274.16;;;;-57
2020/08/25 07:39:30;;;;;;;4.90;2.32;;;;;;;20.47;58.63;100275.62;;;;-53
2020/08/25 07:42:30;;;;;;;5.85;2.39;;;;;;;20.47;59.04;100275.95;;;;-51
2020/08/25 07:45:30;;;;;;;4.88;2.33;;;;;;;20.46;59.32;100281.66;;;;-48
2020/08/25 07:48:30;;;;;;;7.24;2.24;;;;;;;20.57;59.71;100277.17;;;;-48
2020/08/25 07:51:30;;;;;;;6.35;2.19;;;;;;;20.65;59.92;100277.34;;;;-49
2020/08/25 07:54:30;;;;;;;8.41;2.29;;;;;;;20.73;59.96;100278.37;;;;-56
2020/08/25 07:57:30;;;;;;;7.94;2.28;;;;;;;20.79;59.97;100278.94;;;;-53
2020/08/25 08:00:30;;;;;;;7.86;2.28;;;;;;;20.84;60.14;100280.97;;;;-57
2020/08/25 08:03:30;;;;;;;3.55;2.03;;;;;;;20.89;60.27;100281.94;;;;-52
2020/08/25 08:06:30;;;;;;;4.49;1.90;;;;;;;20.95;60.42;100285.42;;;;-49
2020/08/25 08:09:30;;;;;;;5.88;2.15;;;;;;;20.99;60.61;100286.22;;;;-54
2020/08/25 08:12:30;;;;;;;4.17;2.11;;;;;;;21.04;60.76;100292.06;;;;-51
2020/08/25 08:15:30;;;;;;;4.97;2.03;;;;;;;21.08;60.76;100294.83;;;;-57
2020/08/25 08:18:30;;;;;;;4.61;2.15;;;;;;;21.12;61.02;100299.79;;;;-51
2020/08/25 08:21:30;;;;;;;4.81;2.05;;;;;;;21.15;61.02;100301.34;;;;-50
2020/08/25 08:24:30;;;;;;;7.01;2.04;;;;;;;21.17;61.02;100304.75;;;;-50
2020/08/25 08:27:30;;;;;;;5.31;1.97;;;;;;;21.20;60.97;100306.03;;;;-51
2020/08/25 08:30:30;;;;;;;4.52;1.93;;;;;;;21.24;60.87;100305.14;;;;-50
2020/08/25 08:33:30;;;;;;;3.25;1.86;;;;;;;21.26;60.75;100305.30;;;;-53
2020/08/25 08:36:30;;;;;;;5.18;2.10;;;;;;;21.28;60.76;100303.56;;;;-51
2020/08/25 08:39:30;;;;;;;4.72;2.03;;;;;;;21.30;60.71;100304.53;;;;-52
2020/08/25 08:42:30;;;;;;;3.99;1.96;;;;;;;21.33;60.60;100301.50;;;;-58
2020/08/25 08:45:30;;;;;;;3.69;2.15;;;;;;;21.35;60.62;100301.00;;;;-58
2020/08/25 08:48:30;;;;;;;5.03;1.89;;;;;;;21.38;60.60;100300.52;;;;-58
2020/08/25 08:51:30;;;;;;;3.63;2.01;;;;;;;21.39;61.11;100298.70;;;;-59
2020/08/25 08:54:30;;;;;;;4.86;2.05;;;;;;;21.40;61.13;100296.52;;;;-56
2020/08/25 08:57:30;;;;;;;4.61;2.10;;;;;;;21.42;60.92;100298.09;;;;-57
2020/08/25 09:00:30;;;;;;;4.65;2.00;;;;;;;21.45;60.69;100293.90;;;;-60
2020/08/25 09:03:30;;;;;;;4.27;2.07;;;;;;;21.47;60.26;100289.09;;;;-57
2020/08/25 09:06:30;;;;;;;3.67;1.90;;;;;;;21.50;60.14;100284.98;;;;-59
2020/08/25 09:09:30;;;;;;;3.14;2.10;;;;;;;21.51;60.27;100285.25;;;;-62
2020/08/25 09:12:30;;;;;;;4.93;2.03;;;;;;;21.53;60.23;100283.67;;;;-53
2020/08/25 09:15:30;;;;;;;2.92;1.97;;;;;;;21.55;60.29;100285.63;;;;-64
2020/08/25 09:18:30;;;;;;;9.24;2.16;;;;;;;21.58;60.34;100284.45;;;;-54
2020/08/25 09:21:30;;;;;;;6.55;2.07;;;;;;;21.58;60.23;100281.37;;;;-54
2020/08/25 09:24:30;;;;;;;5.98;2.01;;;;;;;21.62;60.17;100274.98;;;;-55
2020/08/25 09:27:30;;;;;;;6.01;2.01;;;;;;;21.63;60.21;100265.70;;;;-58
2020/08/25 09:30:30;;;;;;;3.25;1.90;;;;;;;21.65;60.15;100266.99;;;;-53
2020/08/25 09:33:30;;;;;;;7.58;2.15;;;;;;;21.67;60.82;100260.61;;;;-59
2020/08/25 09:36:30;;;;;;;8.07;2.17;;;;;;;21.69;60.95;100259.53;;;;-54
2020/08/25 09:39:30;;;;;;;5.58;2.08;;;;;;;21.70;61.07;100255.59;;;;-53
2020/08/25 09:42:30;;;;;;;3.42;2.02;;;;;;;21.72;61.13;100250.28;;;;-56
2020/08/25 09:45:30;;;;;;;5.47;2.17;;;;;;;21.74;61.19;100229.88;;;;-57
2020/08/25 09:48:30;;;;;;;5.75;2.03;;;;;;;21.77;61.21;100230.44;;;;-51
2020/08/25 09:51:30;;;;;;;3.63;1.86;;;;;;;21.78;61.32;100218.27;;;;-57
2020/08/25 09:54:30;;;;;;;4.81;2.05;;;;;;;21.81;61.36;100212.45;;;;-50
2020/08/25 09:57:30;;;;;;;3.61;1.87;;;;;;;21.82;61.31;100215.17;;;;-54
2020/08/25 10:00:30;;;;;;;5.73;2.05;;;;;;;21.83;61.32;100217.28;;;;-54
2020/08/25 10:03:30;;;;;;;5.02;1.96;;;;;;;21.82;61.47;100219.47;;;;-55
2020/08/25 10:06:30;;;;;;;8.92;2.15;;;;;;;21.83;61.34;100218.08;;;;-56
2020/08/25 10:09:30;;;;;;;5.00;2.09;;;;;;;21.84;61.27;100214.50;;;;-56
2020/08/25 10:12:30;;;;;;;6.60;2.02;;;;;;;21.84;61.31;100214.66;;;;-56
2020/08/25 10:15:30;;;;;;;6.11;2.07;;;;;;;21.86;61.39;100211.38;;;;-56
2020/08/25 10:18:30;;;;;;;3.51;2.11;;;;;;;21.85;61.28;100211.31;;;;-56
2020/08/25 10:21:30;;;;;;;3.96;1.90;;;;;;;21.86;61.29;100204.59;;;;-55
2020/08/25 10:24:30;;;;;;;4.39;1.96;;;;;;;21.87;61.29;100199.47;;;;-56
2020/08/25 10:27:30;;;;;;;4.47;1.87;;;;;;;21.88;61.34;100194.40;;;;-56
2020/08/25 10:30:30;;;;;;;5.49;2.15;;;;;;;21.88;61.34;100184.84;;;;-56
2020/08/25 10:33:30;;;;;;;3.25;1.76;;;;;;;21.88;61.28;100182.33;;;;-56
2020/08/25 10:36:30;;;;;;;5.49;2.06;;;;;;;21.89;61.35;100180.02;;;;-56
2020/08/25 10:39:30;;;;;;;2.98;1.86;;;;;;;21.90;61.33;100182.47;;;;-56
2020/08/25 10:42:30;;;;;;;4.50;1.91;;;;;;;21.90;61.28;100182.95;;;;-55
2020/08/25 10:45:30;;;;;;;3.55;1.99;;;;;;;21.92;61.35;100183.52;;;;-56
2020/08/25 10:48:30;;;;;;;5.09;1.70;;;;;;;21.92;61.34;100172.74;;;;-56
2020/08/25 10:51:30;;;;;;;3.74;1.79;;;;;;;21.93;61.32;100170.44;;;;-56
2020/08/25 10:54:30;;;;;;;5.07;2.01;;;;;;;21.93;61.37;100169.86;;;;-56
2020/08/25 10:57:30;;;;;;;4.51;1.92;;;;;;;21.94;61.32;100167.19;;;;-56
2020/08/25 11:00:30;;;;;;;2.97;1.71;;;;;;;21.94;61.38;100160.98;;;;-56
2020/08/25 11:03:30;;;;;;;2.85;1.89;;;;;;;21.96;61.35;100158.02;;;;-56
2020/08/25 11:06:30;;;;;;;3.35;1.94;;;;;;;21.96;61.38;100154.43;;;;-56
2020/08/25 11:09:30;;;;;;;2.53;1.75;;;;;;;21.97;61.42;100149.19;;;;-56
2020/08/25 11:12:30;;;;;;;3.83;1.87;;;;;;;21.99;61.10;100147.71;;;;-56
2020/08/25 11:15:30;;;;;;;3.39;1.80;;;;;;;21.98;61.46;100150.98;;;;-56
2020/08/25 11:18:30;;;;;;;7.01;1.85;;;;;;;22.00;61.37;100147.70;;;;-52
2020/08/25 11:21:30;;;;;;;6.38;2.07;;;;;;;22.02;61.47;100150.13;;;;-57
2020/08/25 11:24:30;;;;;;;5.53;1.89;;;;;;;22.03;61.53;100145.39;;;;-52
2020/08/25 11:27:30;;;;;;;4.13;1.99;;;;;;;22.06;61.51;100135.80;;;;-51
2020/08/25 11:30:29;;;;;;;5.29;1.94;;;;;;;22.06;61.69;100138.83;;;;-52
2020/08/25 11:33:30;;;;;;;7.27;2.07;;;;;;;22.08;61.62;100141.92;;;;-57
2020/08/25 11:36:30;;;;;;;3.25;1.83;;;;;;;22.11;61.71;100138.62;;;;-54
2020/08/25 11:39:30;;;;;;;5.01;1.88;;;;;;;22.12;61.84;100143.74;;;;-49
2020/08/25 11:42:30;;;;;;;2.87;1.61;;;;;;;22.13;61.82;100148.30;;;;-51
2020/08/25 11:45:30;;;;;;;3.25;1.73;;;;;;;22.16;61.79;100145.17;;;;-53
2020/08/25 11:48:30;;;;;;;4.31;1.79;;;;;;;22.17;61.95;100137.59;;;;-57
2020/08/25 11:51:30;;;;;;;3.85;1.89;;;;;;;22.19;61.88;100135.13;;;;-58
2020/08/25 11:54:30;;;;;;;6.34;1.70;;;;;;;22.20;61.84;100133.13;;;;-60
2020/08/25 11:57:30;;;;;;;3.74;1.79;;;;;;;22.20;62.00;100133.45;;;;-57
2020/08/25 12:00:30;;;;;;;3.53;1.75;;;;;;;22.20;62.04;100132.64;;;;-56
2020/08/25 12:03:30;;;;;;;3.03;1.65;;;;;;;22.21;62.10;100120.81;;;;-60
2020/08/25 12:06:30;;;;;;;4.13;1.89;;;;;;;22.22;62.14;100117.59;;;;-54
2020/08/25 12:09:30;;;;;;;2.36;1.63;;;;;;;22.24;62.08;100115.91;;;;-59
2020/08/25 12:12:30;;;;;;;3.47;1.90;;;;;;;22.26;62.12;100114.50;;;;-56
2020/08/25 12:15:30;;;;;;;2.74;1.79;;;;;;;22.29;62.21;100110.56;;;;-59
2020/08/25 12:18:30;;;;;;;4.35;1.70;;;;;;;22.30;62.10;100111.67;;;;-58
2020/08/25 12:21:30;;;;;;;3.90;1.91;;;;;;;22.32;62.12;100106.12;;;;-58
2020/08/25 12:24:30;;;;;;;2.29;1.73;;;;;;;22.32;62.12;100101.20;;;;-57
2020/08/25 12:27:30;;;;;;;4.79;1.85;;;;;;;22.33;62.20;100087.66;;;;-51
2020/08/25 12:30:30;;;;;;;3.28;1.70;;;;;;;22.34;62.18;100081.27;;;;-52
2020/08/25 12:33:30;;;;;;;2.81;1.70;;;;;;;22.35;62.25;100075.45;;;;-52
2020/08/25 12:36:30;;;;;;;3.27;1.60;;;;;;;22.34;62.22;100067.30;;;;-52
2020/08/25 12:39:30;;;;;;;2.48;1.70;;;;;;;22.33;62.17;100062.89;;;;-53
2020/08/25 12:42:30;;;;;;;5.36;1.83;;;;;;;22.32;62.19;100058.59;;;;-52
2020/08/25 12:45:30;;;;;;;3.37;1.73;;;;;;;22.32;62.14;100065.45;;;;-53
2020/08/25 12:48:30;;;;;;;3.17;1.77;;;;;;;22.32;62.23;100059.00;;;;-52
2020/08/25 12:51:30;;;;;;;4.90;1.98;;;;;;;22.31;62.16;100055.60;;;;-52
2020/08/25 12:54:30;;;;;;;3.67;1.85;;;;;;;22.33;62.19;100044.05;;;;-51
2020/08/25 12:57:30;;;;;;;5.16;1.65;;;;;;;22.33;62.19;100035.95;;;;-50
2020/08/25 13:00:30;;;;;;;3.15;1.87;;;;;;;22.34;62.08;100027.78;;;;-50
2020/08/25 13:03:30;;;;;;;4.36;1.71;;;;;;;22.37;62.08;100021.86;;;;-45
2020/08/25 13:06:30;;;;;;;7.35;1.95;;;;;;;22.35;62.14;100011.13;;;;-49
2020/08/25 13:09:30;;;;;;;4.54;1.79;;;;;;;22.35;62.26;100005.83;;;;-49
2020/08/25 13:12:30;;;;;;;4.25;1.83;;;;;;;22.33;62.22;100013.44;;;;-49
2020/08/25 13:15:30;;;;;;;4.44;1.79;;;;;;;22.33;62.16;100001.11;;;;-49
2020/08/25 13:18:30;;;;;;;4.94;2.07;;;;;;;22.31;62.18;100001.23;;;;-49
2020/08/25 13:21:30;;;;;;;4.27;1.80;;;;;;;22.30;62.25;100003.59;;;;-49
2020/08/25 13:24:30;;;;;;;3.47;1.80;;;;;;;22.29;62.18;100001.73;;;;-49
2020/08/25 13:27:30;;;;;;;5.61;1.97;;;;;;;22.28;62.28;99996.75;;;;-49
2020/08/25 13:30:30;;;;;;;4.00;1.65;;;;;;;22.28;62.31;99988.19;;;;-49
2020/08/25 13:33:30;;;;;;;4.77;1.87;;;;;;;22.26;62.26;99980.28;;;;-49
2020/08/25 13:36:30;;;;;;;3.24;1.89;;;;;;;22.26;62.34;99978.02;;;;-49
2020/08/25 13:39:30;;;;;;;4.81;1.89;;;;;;;22.26;62.25;99974.19;;;;-49
2020/08/25 13:42:30;;;;;;;3.01;1.69;;;;;;;22.24;62.35;99974.11;;;;-49
2020/08/25 13:45:30;;;;;;;2.87;1.73;;;;;;;22.24;62.38;99968.82;;;;-49
2020/08/25 13:48:30;;;;;;;4.45;1.73;;;;;;;22.23;62.42;99969.41;;;;-49
2020/08/25 13:51:30;;;;;;;4.46;1.85;;;;;;;22.23;62.31;99969.08;;;;-49
2020/08/25 13:54:30;;;;;;;3.61;1.80;;;;;;;22.23;62.37;99963.67;;;;-49
2020/08/25 13:57:30;;;;;;;2.61;1.70;;;;;;;22.23;62.41;99958.05;;;;-49
2020/08/25 14:00:30;;;;;;;3.11;1.63;;;;;;;22.23;62.39;99950.72;;;;-49
2020/08/25 14:03:30;;;;;;;2.85;1.73;;;;;;;22.22;62.34;99945.46;;;;-49
2020/08/25 14:06:30;;;;;;;4.83;1.88;;;;;;;22.22;62.45;99940.66;;;;-49
2020/08/25 14:09:30;;;;;;;3.33;1.55;;;;;;;22.21;62.39;99930.64;;;;-49
2020/08/25 14:12:30;;;;;;;1.91;1.65;;;;;;;22.20;62.39;99914.98;;;;-49
2020/08/25 14:15:30;;;;;;;3.08;1.61;;;;;;;22.20;62.47;99909.27;;;;-49
2020/08/25 14:18:30;;;;;;;2.55;1.69;;;;;;;22.20;62.41;99907.38;;;;-49
2020/08/25 14:21:30;;;;;;;4.32;1.59;;;;;;;22.19;62.41;99903.72;;;;-49
2020/08/25 14:24:30;;;;;;;3.96;1.81;;;;;;;22.20;62.56;99900.67;;;;-49
2020/08/25 14:27:30;;;;;;;3.87;1.76;;;;;;;22.19;62.53;99894.73;;;;-49
2020/08/25 14:30:30;;;;;;;2.45;1.67;;;;;;;22.19;62.51;99894.08;;;;-49
2020/08/25 14:33:30;;;;;;;3.98;1.71;;;;;;;22.19;62.50;99893.19;;;;-49
2020/08/25 14:36:30;;;;;;;2.72;1.61;;;;;;;22.18;62.48;99883.02;;;;-49
2020/08/25 14:39:30;;;;;;;2.79;1.67;;;;;;;22.18;62.56;99881.27;;;;-49
2020/08/25 14:42:30;;;;;;;2.25;1.54;;;;;;;22.18;62.61;99891.66;;;;-49
2020/08/25 14:45:30;;;;;;;2.24;1.61;;;;;;;22.18;62.58;99884.80;;;;-49
2020/08/25 14:48:30;;;;;;;2.81;1.78;;;;;;;22.18;62.59;99878.45;;;;-49
2020/08/25 14:51:30;;;;;;;2.39;1.59;;;;;;;22.18;62.63;99873.04;;;;-49
2020/08/25 14:54:30;;;;;;;2.61;1.58;;;;;;;22.17;62.55;99868.32;;;;-49
2020/08/25 14:57:30;;;;;;;1.98;1.47;;;;;;;22.17;62.66;99861.06;;;;-50
2020/08/25 15:00:30;;;;;;;2.61;1.63;;;;;;;22.17;62.61;99855.53;;;;-49
2020/08/25 15:03:30;;;;;;;1.74;1.52;;;;;;;22.17;62.58;99853.72;;;;-50
2020/08/25 15:06:30;;;;;;;1.99;1.55;;;;;;;22.16;62.68;99846.70;;;;-49
2020/08/25 15:09:30;;;;;;;2.27;1.50;;;;;;;22.16;62.60;99852.69;;;;-49
2020/08/25 15:12:30;;;;;;;3.39;1.58;;;;;;;22.18;62.69;99840.47;;;;-51
2020/08/25 15:15:30;;;;;;;3.19;1.69;;;;;;;22.19;62.65;99833.45;;;;-50
2020/08/25 15:18:30;;;;;;;4.27;1.59;;;;;;;22.20;62.70;99836.95;;;;-50
2020/08/25 15:21:30;;;;;;;4.39;1.55;;;;;;;22.20;62.61;99823.73;;;;-52
2020/08/25 15:24:30;;;;;;;3.27;1.57;;;;;;;22.21;62.66;99820.36;;;;-52
2020/08/25 15:27:30;;;;;;;4.81;1.58;;;;;;;22.22;62.71;99818.06;;;;-57
2020/08/25 15:30:30;;;;;;;3.14;1.69;;;;;;;22.21;62.75;99817.59;;;;-58
2020/08/25 15:33:30;;;;;;;5.87;1.69;;;;;;;22.22;62.69;99814.23;;;;-51
2020/08/25 15:36:30;;;;;;;3.57;1.88;;;;;;;22.23;62.71;99813.25;;;;-53
2020/08/25 15:39:30;;;;;;;4.67;1.70;;;;;;;22.23;62.77;99809.83;;;;-50
2020/08/25 15:42:30;;;;;;;6.49;1.79;;;;;;;22.23;62.68;99811.47;;;;-51
2020/08/25 15:45:30;;;;;;;4.38;1.60;;;;;;;22.23;62.73;99816.28;;;;-50
2020/08/25 15:48:30;;;;;;;4.21;1.70;;;;;;;22.24;62.68;99810.95;;;;-58
2020/08/25 15:51:30;;;;;;;4.68;1.59;;;;;;;22.24;62.80;99812.27;;;;-57
2020/08/25 15:56:30;;;;;;;2.81;1.56;;;;;;;22.24;62.69;99803.53;;;;-51
2020/08/25 15:59:30;;;;;;;3.11;1.50;;;;;;;22.24;62.77;99803.13;;;;-50
2020/08/25 16:02:30;;;;;;;7.48;1.70;;;;;;;22.23;62.79;99794.57;;;;-49
2020/08/25 16:05:30;;;;;;;2.49;1.51;;;;;;;22.25;62.89;99788.52;;;;-47
2020/08/25 16:08:30;;;;;;;4.92;1.55;;;;;;;22.26;62.91;99784.88;;;;-59
2020/08/25 16:11:30;;;;;;;3.40;1.55;;;;;;;22.28;62.96;99781.25;;;;-58
2020/08/25 16:14:30;;;;;;;4.81;1.73;;;;;;;22.29;62.96;99771.22;;;;-51
2020/08/25 16:17:30;;;;;;;2.33;1.57;;;;;;;22.31;62.95;99764.02;;;;-53
2020/08/25 16:20:30;;;;;;;13.45;2.01;;;;;;;22.33;63.55;99766.34;;;;-57
2020/08/25 16:23:30;;;;;;;6.48;1.65;;;;;;;22.35;63.21;99762.14;;;;-57
2020/08/25 16:26:30;;;;;;;5.95;1.73;;;;;;;22.38;63.33;99756.77;;;;-47
2020/08/25 16:29:30;;;;;;;6.79;1.73;;;;;;;22.41;63.35;99747.41;;;;-59
2020/08/25 16:32:30;;;;;;;2.85;1.55;;;;;;;22.43;63.36;99732.38;;;;-51
2020/08/25 16:35:30;;;;;;;12.09;2.04;;;;;;;22.45;63.40;99726.84;;;;-44
2020/08/25 16:38:30;;;;;;;6.55;1.62;;;;;;;22.44;63.57;99722.70;;;;-53
2020/08/25 16:41:30;;;;;;;5.91;1.61;;;;;;;22.45;63.43;99719.42;;;;-54
2020/08/25 16:44:30;;;;;;;5.05;1.75;;;;;;;22.45;63.48;99715.67;;;;-59
2020/08/25 16:47:30;;;;;;;6.63;1.83;;;;;;;22.45;63.36;99714.20;;;;-57
2020/08/25 16:50:29;;;;;;;3.63;1.67;;;;;;;22.44;63.35;99718.87;;;;-54
2020/08/25 16:53:30;;;;;;;5.43;1.81;;;;;;;22.44;63.29;99717.17;;;;-53